Time;durP1;ratioP1;P1;durP2;ratioP2;P2;SDS_P1;SDS_P2;PMS_P1;PMS_P2;Temp;Humidity;BMP_temperature;BMP_pressure;BME280_temperature;BME280_humidity;BME280_pressure;Samples;Min_cycle;Max_cycle;Signal;HPM_P1;HPM_P2
2021/04/02 00:00:52;;;;;;;2.50;1.97;;;;;;;6.55;64.45;100108.22;147341;1147;104554;-74
2021/04/02 00:03:55;;;;;;;2.43;1.40;;;;;;;6.54;64.15;100104.70;147793;1147;104543;-72
2021/04/02 00:06:58;;;;;;;2.40;1.70;;;;;;;6.51;63.49;100118.23;147616;1147;104449;-71
2021/04/02 00:10:01;;;;;;;3.17;1.50;;;;;;;6.48;63.99;100129.09;147790;1147;104549;-70
2021/04/02 00:13:05;;;;;;;3.30;1.70;;;;;;;6.38;64.38;100126.38;147643;1147;104538;-74
2021/04/02 00:16:10;;;;;;;1.92;1.67;;;;;;;6.33;63.02;100120.61;147396;1147;104528;-72
2021/04/02 00:19:13;;;;;;;2.58;1.80;;;;;;;6.22;63.99;100115.40;147560;1147;104550;-73
2021/04/02 00:22:16;;;;;;;2.40;1.60;;;;;;;6.23;63.63;100112.59;147718;1147;104476;-71
2021/04/02 00:25:20;;;;;;;2.57;1.80;;;;;;;6.21;64.69;100122.48;147712;1147;104569;-73
2021/04/02 00:28:23;;;;;;;3.20;1.62;;;;;;;6.22;63.41;100124.18;147691;1147;104471;-72
2021/04/02 00:31:27;;;;;;;2.40;1.60;;;;;;;6.25;63.25;100120.42;147735;1147;104522;-71
2021/04/02 00:34:30;;;;;;;3.33;2.15;;;;;;;6.24;63.50;100124.05;147719;1147;104512;-72
2021/04/02 00:37:33;;;;;;;2.70;1.70;;;;;;;6.28;64.37;100112.23;147743;1147;104473;-72
2021/04/02 00:40:39;;;;;;;3.33;2.40;;;;;;;6.35;63.39;100113.40;147777;1147;104468;-71
2021/04/02 00:43:45;;;;;;;2.50;1.85;;;;;;;6.39;62.76;100121.91;147726;1147;106011;-70
2021/04/02 00:46:48;;;;;;;1.90;1.30;;;;;;;6.40;63.55;100128.90;147667;1148;104538;-71
2021/04/02 00:49:51;;;;;;;2.17;1.37;;;;;;;6.35;62.99;100131.95;147749;1147;104460;-74
2021/04/02 00:52:55;;;;;;;2.90;1.72;;;;;;;6.31;63.10;100133.15;147521;1147;104556;-71
2021/04/02 00:55:59;;;;;;;2.55;1.70;;;;;;;6.17;62.83;100130.83;147590;1147;104473;-72
2021/04/02 00:59:05;;;;;;;1.72;1.42;;;;;;;6.03;63.02;100126.68;147837;1147;105927;-70
2021/04/02 01:02:08;;;;;;;2.15;1.40;;;;;;;6.03;63.07;100124.03;147808;1147;104896;-71
2021/04/02 01:05:18;;;;;;;1.80;1.20;;;;;;;6.04;63.58;100128.34;147787;1148;104512;-70
2021/04/02 01:08:26;;;;;;;2.20;1.30;;;;;;;6.02;63.35;100130.28;147519;1147;104476;-71
2021/04/02 01:11:29;;;;;;;2.42;1.42;;;;;;;5.95;62.95;100135.26;147722;1147;104684;-71
2021/04/02 01:14:36;;;;;;;2.45;1.70;;;;;;;5.96;63.62;100139.57;147649;1147;104551;-70
2021/04/02 01:17:43;;;;;;;1.98;1.27;;;;;;;5.91;63.47;100131.16;147660;1147;104521;-70
2021/04/02 01:20:51;;;;;;;1.47;1.17;;;;;;;5.94;63.52;100135.34;147741;1147;104473;-71
2021/04/02 01:24:10;;;;;;;1.87;1.20;;;;;;;5.98;64.36;100142.09;147691;1147;104806;-71
2021/04/02 01:27:27;;;;;;;1.57;1.30;;;;;;;6.02;63.49;100144.36;147728;1147;104509;-74
2021/04/02 01:30:32;;;;;;;2.60;1.23;;;;;;;5.98;64.02;100152.70;147690;1147;104534;-71
2021/04/02 01:33:37;;;;;;;1.67;1.02;;;;;;;5.99;62.58;100149.09;147234;1147;104541;-69
2021/04/02 01:36:43;;;;;;;1.32;1.00;;;;;;;5.98;63.24;100155.34;147691;1147;104537;-69
2021/04/02 01:39:48;;;;;;;1.40;1.00;;;;;;;5.94;63.09;100156.53;147292;1147;104558;-69
2021/04/02 01:42:54;;;;;;;1.37;1.00;;;;;;;5.84;63.45;100154.63;147599;1145;104535;-69
2021/04/02 01:46:00;;;;;;;1.55;1.12;;;;;;;5.71;62.69;100156.59;147724;1147;104630;-71
2021/04/02 01:49:06;;;;;;;2.40;1.10;;;;;;;5.66;62.79;100158.79;147821;1148;104548;-69
2021/04/02 01:52:12;;;;;;;1.40;1.10;;;;;;;5.62;62.57;100168.78;147618;1147;105084;-69
2021/04/02 01:55:16;;;;;;;1.95;1.20;;;;;;;5.52;63.82;100186.34;147676;1147;104479;-70
2021/04/02 01:58:21;;;;;;;1.43;0.97;;;;;;;5.36;63.55;100189.37;147464;1147;104556;-69
2021/04/02 02:01:31;;;;;;;1.45;1.07;;;;;;;5.22;62.98;100195.75;147056;1147;104588;-70
2021/04/02 02:04:36;;;;;;;1.93;1.10;;;;;;;5.11;63.49;100196.58;147413;1147;104548;-70
2021/04/02 02:07:41;;;;;;;2.10;1.00;;;;;;;5.00;63.34;100199.21;147098;1147;104529;-71
2021/04/02 02:10:47;;;;;;;1.87;1.30;;;;;;;4.92;63.29;100212.19;146779;1147;104474;-70
2021/04/02 02:13:54;;;;;;;1.60;1.32;;;;;;;4.78;63.84;100209.77;147200;1147;104464;-71
2021/04/02 02:17:03;;;;;;;3.80;1.50;;;;;;;4.70;63.57;100221.77;147490;1147;104543;-69
2021/04/02 02:20:11;;;;;;;2.72;1.45;;;;;;;4.61;63.61;100222.45;147135;1148;104545;-71
2021/04/02 02:23:15;;;;;;;2.55;1.42;;;;;;;4.59;63.68;100229.66;147188;1146;104536;-72
2021/04/02 02:26:20;;;;;;;2.05;1.32;;;;;;;4.49;63.89;100233.95;147709;1147;104455;-73
2021/04/02 02:29:26;;;;;;;2.90;1.55;;;;;;;4.41;63.61;100231.88;147575;1147;104538;-73
2021/04/02 02:32:30;;;;;;;2.05;1.50;;;;;;;4.27;64.25;100247.89;147569;1147;104487;-70
2021/04/02 02:35:33;;;;;;;3.37;1.80;;;;;;;4.15;64.49;100247.00;147308;1147;104646;-70
2021/04/02 02:38:37;;;;;;;3.12;1.50;;;;;;;4.05;63.56;100248.63;147714;1148;104547;-70
2021/04/02 02:41:42;;;;;;;2.17;1.57;;;;;;;4.00;64.28;100253.39;147274;1148;104481;-70
2021/04/02 02:44:47;;;;;;;3.73;1.63;;;;;;;3.93;63.69;100250.37;147543;1147;104524;-70
2021/04/02 02:47:50;;;;;;;2.83;1.70;;;;;;;3.80;65.52;100247.75;147373;1147;104605;-73
2021/04/02 02:50:57;;;;;;;2.25;1.65;;;;;;;3.78;64.34;100257.58;147662;1148;104540;-72
2021/04/02 02:54:03;;;;;;;2.97;1.97;;;;;;;3.75;64.60;100255.14;147283;1147;104611;-69
2021/04/02 02:57:10;;;;;;;3.35;1.70;;;;;;;3.77;66.14;100257.69;147263;1147;104516;-70
2021/04/02 03:00:17;;;;;;;2.45;1.55;;;;;;;3.80;63.93;100246.92;147759;1147;104461;-69
2021/04/02 03:03:22;;;;;;;2.27;1.47;;;;;;;3.90;64.31;100259.33;147689;1147;104540;-71
2021/04/02 03:06:33;;;;;;;2.95;1.70;;;;;;;3.96;64.25;100249.29;147743;1147;104950;-70
2021/04/02 03:09:39;;;;;;;3.60;1.60;;;;;;;3.99;64.84;100254.36;147347;1147;104471;-71
2021/04/02 03:12:45;;;;;;;2.77;1.80;;;;;;;4.05;65.14;100257.39;147739;1147;104549;-71
2021/04/02 03:15:50;;;;;;;2.45;1.72;;;;;;;4.05;64.95;100256.55;147826;1147;104538;-70
2021/04/02 03:18:56;;;;;;;3.55;1.90;;;;;;;4.08;64.66;100254.54;147654;1146;104540;-74
2021/04/02 03:22:03;;;;;;;3.07;1.80;;;;;;;4.13;64.76;100254.19;147708;1147;104944;-71
2021/04/02 03:25:16;;;;;;;3.70;1.98;;;;;;;4.15;64.93;100247.00;147855;1147;104610;-71
2021/04/02 03:28:24;;;;;;;4.10;1.95;;;;;;;4.17;64.04;100253.01;147435;1148;104471;-70
2021/04/02 03:31:34;;;;;;;3.00;2.02;;;;;;;4.10;65.00;100257.07;147758;1148;104473;-73
2021/04/02 03:34:39;;;;;;;3.00;2.10;;;;;;;4.08;65.00;100254.54;147790;1147;104525;-76
2021/04/02 03:37:46;;;;;;;2.72;1.87;;;;;;;4.05;65.88;100260.03;147756;1148;104629;-72
2021/04/02 03:40:52;;;;;;;3.55;2.37;;;;;;;4.04;65.23;100263.64;147576;1147;104621;-71
2021/04/02 03:43:57;;;;;;;3.40;2.17;;;;;;;4.16;65.10;100267.19;147361;1147;104538;-73
2021/04/02 03:47:03;;;;;;;3.12;2.25;;;;;;;4.18;65.10;100270.55;147428;1147;104838;-71
2021/04/02 03:50:12;;;;;;;3.50;2.10;;;;;;;4.19;65.00;100269.58;147359;1147;104562;-73
2021/04/02 03:53:20;;;;;;;4.37;2.65;;;;;;;4.16;65.02;100267.19;147703;1147;104669;-72
2021/04/02 03:56:29;;;;;;;4.05;2.70;;;;;;;4.10;64.79;100272.91;147793;1147;104947;-71
2021/04/02 03:59:36;;;;;;;5.05;2.80;;;;;;;4.16;64.90;100253.98;147739;1147;104615;-72
2021/04/02 04:02:40;;;;;;;4.40;2.67;;;;;;;4.16;64.45;100240.77;147629;1147;104565;-72
2021/04/02 04:05:47;;;;;;;4.55;2.60;;;;;;;4.17;65.61;100241.61;147833;1147;104458;-70
2021/04/02 04:08:55;;;;;;;4.12;2.77;;;;;;;4.10;65.28;100226.22;147820;1147;104540;-71
2021/04/02 04:12:02;;;;;;;4.13;3.07;;;;;;;4.10;64.22;100230.67;147781;1148;104533;-70
2021/04/02 04:15:28;;;;;;;4.78;2.70;;;;;;;4.04;64.62;100216.11;147691;1147;104473;-70
2021/04/02 04:18:35;;;;;;;4.07;2.97;;;;;;;4.09;65.10;100226.33;147744;1147;104534;-71
2021/04/02 04:21:41;;;;;;;4.80;3.10;;;;;;;4.13;65.42;100240.98;147683;1147;104464;-71
2021/04/02 04:24:48;;;;;;;5.75;3.70;;;;;;;4.17;65.13;100231.88;147741;1147;104552;-70
2021/04/02 04:27:55;;;;;;;3.80;3.00;;;;;;;4.19;64.21;100245.81;147580;1147;104507;-71
2021/04/02 04:31:02;;;;;;;7.17;3.35;;;;;;;4.21;64.67;100243.06;147613;1147;104481;-71
2021/04/02 04:34:06;;;;;;;5.30;3.22;;;;;;;4.23;65.01;100238.52;147509;1147;104467;-70
2021/04/02 04:37:10;;;;;;;4.28;2.72;;;;;;;4.26;64.51;100249.70;147748;1147;104572;-68
2021/04/02 04:40:17;;;;;;;3.80;3.15;;;;;;;4.25;65.70;100250.67;147627;1147;104627;-69
2021/04/02 04:43:21;;;;;;;4.62;3.60;;;;;;;4.29;65.15;100257.41;147692;1147;105012;-69
2021/04/02 04:46:24;;;;;;;5.85;3.60;;;;;;;4.22;64.86;100250.88;147624;1146;104546;-71
2021/04/02 04:49:28;;;;;;;5.28;4.00;;;;;;;4.28;64.64;100245.14;147685;1147;104511;-72
2021/04/02 04:52:32;;;;;;;6.30;3.92;;;;;;;4.41;64.34;100247.73;147663;1147;104518;-70
2021/04/02 04:55:39;;;;;;;7.23;5.63;;;;;;;4.40;64.52;100245.20;147427;1147;104588;-71
2021/04/02 04:58:47;;;;;;;6.62;5.15;;;;;;;4.48;64.65;100256.90;148253;1147;104546;-74
2021/04/02 05:01:55;;;;;;;5.40;3.83;;;;;;;4.57;64.59;100250.06;147717;1148;104501;-69
2021/04/02 05:05:00;;;;;;;5.55;4.03;;;;;;;4.53;64.96;100261.83;147602;1147;104473;-69
2021/04/02 05:08:07;;;;;;;7.27;4.30;;;;;;;4.51;64.61;100266.39;147276;1147;104598;-70
2021/04/02 05:11:14;;;;;;;8.13;5.97;;;;;;;4.37;65.52;100271.83;147270;1147;104649;-72
2021/04/02 05:14:19;;;;;;;6.65;4.85;;;;;;;4.25;65.28;100276.22;147813;1146;104494;-70
2021/04/02 05:17:22;;;;;;;12.03;7.30;;;;;;;4.20;65.39;100286.30;147805;1147;104550;-70
2021/04/02 05:20:39;;;;;;;16.62;9.63;;;;;;;4.03;67.18;100287.50;147768;1147;104530;-70
2021/04/02 05:23:42;;;;;;;13.93;7.60;;;;;;;4.02;65.55;100297.23;147749;1148;104947;-71
2021/04/02 05:26:45;;;;;;;23.50;13.38;;;;;;;4.02;66.28;100296.37;147741;1147;104483;-71
2021/04/02 05:29:48;;;;;;;14.98;9.40;;;;;;;3.98;67.23;100305.46;147801;1147;104547;-70
2021/04/02 05:32:52;;;;;;;17.70;12.05;;;;;;;3.97;65.66;100307.27;147748;1147;104473;-70
2021/04/02 05:35:55;;;;;;;14.05;9.75;;;;;;;3.98;66.77;100305.46;147504;1147;104448;-68
2021/04/02 05:38:58;;;;;;;28.50;15.87;;;;;;;4.05;67.53;100309.36;147431;1147;104658;-71
2021/04/02 05:42:04;;;;;;;16.77;10.70;;;;;;;4.08;66.74;100309.13;147523;1147;104560;-70
2021/04/02 05:45:10;;;;;;;12.90;9.00;;;;;;;3.86;67.36;100308.02;147570;1148;104453;-68
2021/04/02 05:48:16;;;;;;;13.08;9.08;;;;;;;3.82;67.03;100298.63;147445;1147;104456;-71
2021/04/02 05:51:20;;;;;;;14.28;9.43;;;;;;;3.84;66.58;100299.37;147417;1147;104572;-70
2021/04/02 05:54:34;;;;;;;14.25;10.78;;;;;;;3.94;67.50;100294.27;147672;1147;104450;-70
2021/04/02 05:57:38;;;;;;;9.33;7.27;;;;;;;4.07;66.56;100299.53;147495;1147;104602;-71
2021/04/02 06:00:41;;;;;;;9.08;5.83;;;;;;;4.09;65.86;100297.63;148032;1147;104420;-76
2021/04/02 06:03:45;;;;;;;7.60;5.90;;;;;;;4.21;65.95;100291.44;147860;1148;104449;-72
2021/04/02 06:06:49;;;;;;;10.78;8.30;;;;;;;4.39;67.29;100296.34;147804;1147;104467;-71
2021/04/02 06:09:53;;;;;;;10.28;8.55;;;;;;;4.41;66.67;100299.73;147778;1148;104524;-74
2021/04/02 06:12:58;;;;;;;8.60;6.37;;;;;;;4.38;65.77;100298.14;147714;1147;104583;-71
2021/04/02 06:16:02;;;;;;;11.50;7.97;;;;;;;4.46;66.24;100303.70;147660;1147;104528;-69
2021/04/02 06:19:10;;;;;;;11.55;9.15;;;;;;;4.48;65.88;100300.95;147688;1147;104522;-69
2021/04/02 06:22:15;;;;;;;11.70;9.13;;;;;;;4.54;66.32;100303.14;147554;1147;104460;-70
2021/04/02 06:25:19;;;;;;;9.13;7.17;;;;;;;4.64;65.78;100304.16;147668;1147;104489;-70
2021/04/02 06:28:25;;;;;;;8.35;6.10;;;;;;;4.86;66.22;100298.10;147232;1147;104636;-71
2021/04/02 06:31:34;;;;;;;7.90;6.22;;;;;;;4.95;65.15;100298.39;147362;1147;104569;-71
2021/04/02 06:34:47;;;;;;;9.28;6.55;;;;;;;5.06;65.17;100299.26;147775;1147;104460;-72
2021/04/02 06:37:55;;;;;;;8.20;6.08;;;;;;;5.11;65.34;100307.66;147766;1147;104469;-75
2021/04/02 06:41:04;;;;;;;12.93;6.00;;;;;;;5.34;65.09;100301.59;147880;1147;104550;-73
2021/04/02 06:44:09;;;;;;;8.25;7.15;;;;;;;5.61;64.69;100303.89;148021;1148;104547;-74
2021/04/02 06:47:12;;;;;;;8.93;6.72;;;;;;;5.79;64.65;100304.24;147815;1147;104464;-73
2021/04/02 06:50:19;;;;;;;10.45;8.40;;;;;;;5.82;63.96;100302.20;147621;1147;104563;-74
2021/04/02 06:53:24;;;;;;;9.48;7.58;;;;;;;5.86;64.00;100303.64;147354;1147;104546;-75
2021/04/02 06:56:28;;;;;;;46.10;24.25;;;;;;;5.92;64.31;100301.47;147430;1147;104453;-74
2021/04/02 06:59:35;;;;;;;12.73;9.10;;;;;;;5.89;64.50;100308.70;147741;1147;104553;-74
2021/04/02 07:02:43;;;;;;;11.70;7.72;;;;;;;5.97;64.45;100302.00;147602;1148;104546;-73
2021/04/02 07:05:46;;;;;;;8.95;7.12;;;;;;;6.00;63.05;100307.03;147758;1147;104552;-76
2021/04/02 07:08:50;;;;;;;8.93;7.15;;;;;;;5.94;64.05;100318.09;148218;1146;104471;-74
2021/04/02 07:11:59;;;;;;;9.80;7.83;;;;;;;6.12;63.52;100313.15;148261;1147;104972;-74
2021/04/02 07:15:04;;;;;;;9.60;7.45;;;;;;;6.10;63.00;100315.91;147946;1147;104533;-74
2021/04/02 07:18:11;;;;;;;8.50;6.95;;;;;;;6.06;63.51;100322.42;148048;1148;104464;-74
2021/04/02 07:21:16;;;;;;;8.93;7.20;;;;;;;6.09;63.08;100325.67;147939;1147;104549;-75
2021/04/02 07:24:20;;;;;;;8.27;6.33;;;;;;;6.24;62.78;100315.66;148052;1147;104442;-74
2021/04/02 07:27:23;;;;;;;8.85;7.40;;;;;;;6.18;62.08;100323.25;147891;1146;104413;-74
2021/04/02 07:30:29;;;;;;;12.93;9.30;;;;;;;6.20;62.87;100327.48;147948;1147;104442;-73
2021/04/02 07:33:36;;;;;;;13.93;10.30;;;;;;;6.40;62.88;100325.02;147718;1148;104580;-75
2021/04/02 07:36:40;;;;;;;9.77;7.47;;;;;;;6.59;62.37;100329.67;147783;1147;104460;-75
2021/04/02 07:39:47;;;;;;;8.78;7.28;;;;;;;6.46;62.04;100327.17;147860;1148;104439;-73
2021/04/02 07:42:52;;;;;;;302.65;100.58;;;;;;;6.41;62.31;100322.26;147846;1147;104546;-73
2021/04/02 07:46:12;;;;;;;65.28;30.17;;;;;;;6.74;62.85;100328.41;147665;1147;104563;-71
2021/04/02 07:49:15;;;;;;;20.10;12.82;;;;;;;7.08;62.76;100318.49;147592;1147;104505;-72
2021/04/02 07:52:31;;;;;;;282.77;118.77;;;;;;;7.11;62.51;100327.99;147786;1147;104560;-72
2021/04/02 07:55:37;;;;;;;153.95;97.15;;;;;;;7.15;61.92;100320.62;147920;1147;104460;-74
2021/04/02 07:58:48;;;;;;;33.17;22.03;;;;;;;7.33;62.41;100329.66;147682;1147;104472;-72
2021/04/02 08:02:04;;;;;;;18.13;12.43;;;;;;;7.44;61.52;100318.98;147751;1147;104543;-71
2021/04/02 08:05:16;;;;;;;13.38;10.88;;;;;;;7.37;60.65;100327.59;147999;1147;104546;-71
2021/04/02 08:08:20;;;;;;;18.85;12.15;;;;;;;7.20;61.28;100334.36;147805;1146;104475;-72
2021/04/02 08:11:26;;;;;;;12.50;9.75;;;;;;;6.92;60.89;100331.34;147947;1148;104585;-72
2021/04/02 08:14:35;;;;;;;11.12;9.38;;;;;;;6.84;60.92;100325.84;147748;1146;104542;-71
2021/04/02 08:17:39;;;;;;;11.18;9.98;;;;;;;6.91;61.20;100329.67;147760;1147;104599;-70
2021/04/02 08:20:42;;;;;;;15.30;11.70;;;;;;;6.97;61.97;100331.81;147814;1147;104494;-74
2021/04/02 08:23:46;;;;;;;89.58;51.60;;;;;;;7.15;62.36;100326.77;147705;1147;104459;-73
2021/04/02 08:26:50;;;;;;;218.73;108.30;;;;;;;7.28;61.08;100318.62;147454;1147;104444;-72
2021/04/02 08:30:02;;;;;;;49.85;28.17;;;;;;;7.51;59.70;100303.38;147739;1147;104538;-66
2021/04/02 08:33:09;;;;;;;26.57;16.77;;;;;;;7.40;61.18;100314.91;147649;1147;104544;-71
2021/04/02 08:36:12;;;;;;;30.37;19.47;;;;;;;7.36;60.77;100310.00;147600;1146;104495;-68
2021/04/02 08:39:18;;;;;;;21.20;13.33;;;;;;;7.49;61.45;100307.98;147669;1148;104460;-72
2021/04/02 08:42:21;;;;;;;15.55;10.90;;;;;;;7.70;60.83;100291.14;147647;1147;104559;-70
2021/04/02 08:45:24;;;;;;;19.32;13.70;;;;;;;7.86;59.59;100302.95;147519;1148;104500;-70
2021/04/02 08:48:27;;;;;;;19.20;15.93;;;;;;;7.94;60.94;100315.56;147686;1147;104523;-70
2021/04/02 08:51:31;;;;;;;33.23;22.80;;;;;;;7.71;60.21;100308.77;147587;1146;104460;-71
2021/04/02 08:54:34;;;;;;;37.90;22.73;;;;;;;7.77;59.65;100314.38;147414;1148;104572;-70
2021/04/02 08:57:38;;;;;;;164.82;88.33;;;;;;;7.98;60.98;100300.20;147130;1147;104550;-71
2021/04/02 09:00:41;;;;;;;44.70;32.23;;;;;;;8.35;59.66;100305.77;147245;1148;104499;-70
2021/04/02 09:03:45;;;;;;;27.60;22.32;;;;;;;8.49;60.19;100293.91;147665;1147;104713;-72
2021/04/02 09:06:49;;;;;;;20.77;18.47;;;;;;;8.16;58.72;100292.41;147396;1147;104583;-71
2021/04/02 09:09:52;;;;;;;19.17;17.17;;;;;;;7.99;59.01;100296.58;147733;1148;104457;-70
2021/04/02 09:12:56;;;;;;;25.10;20.95;;;;;;;8.05;60.16;100286.23;147708;1146;104566;-72
2021/04/02 09:16:06;;;;;;;16.30;14.60;;;;;;;8.34;58.13;100289.94;147701;1147;104600;-70
2021/04/02 09:19:10;;;;;;;15.45;13.48;;;;;;;8.20;58.90;100293.84;147671;1147;104559;-70
2021/04/02 09:22:14;;;;;;;16.73;14.93;;;;;;;8.18;58.91;100286.00;147731;1148;104510;-70
2021/04/02 09:25:21;;;;;;;13.58;11.28;;;;;;;8.39;58.86;100287.69;147714;1147;104855;-72
2021/04/02 09:28:26;;;;;;;10.00;8.90;;;;;;;8.58;57.18;100286.90;147707;1147;104479;-71
2021/04/02 09:31:32;;;;;;;10.00;9.00;;;;;;;8.46;55.20;100294.17;147366;1147;104547;-71
2021/04/02 09:34:35;;;;;;;8.73;7.83;;;;;;;7.97;56.61;100285.25;147678;1147;104655;-71
2021/04/02 09:37:39;;;;;;;8.80;7.90;;;;;;;7.84;56.77;100288.13;147314;1147;104583;-72
2021/04/02 09:40:45;;;;;;;10.05;8.15;;;;;;;7.98;57.65;100276.28;147122;1147;104457;-70
2021/04/02 09:43:50;;;;;;;8.45;7.12;;;;;;;8.00;57.32;100274.33;147329;1147;104546;-70
2021/04/02 09:47:02;;;;;;;6.70;6.10;;;;;;;7.96;57.25;100264.95;147176;1147;104467;-70
2021/04/02 09:50:08;;;;;;;6.53;5.93;;;;;;;7.93;54.56;100270.53;147459;1147;104617;-70
2021/04/02 09:53:12;;;;;;;8.00;6.03;;;;;;;8.00;56.36;100251.25;147681;1147;104534;-69
2021/04/02 09:56:15;;;;;;;6.37;5.55;;;;;;;8.14;56.08;100252.70;147615;1147;104538;-71
2021/04/02 09:59:19;;;;;;;6.75;5.25;;;;;;;8.10;56.17;100248.61;147589;1147;104455;-69
2021/04/02 10:02:22;;;;;;;5.67;4.87;;;;;;;8.03;56.62;100255.47;147645;1147;104556;-71
2021/04/02 10:05:26;;;;;;;5.25;4.75;;;;;;;8.10;57.58;100240.63;147769;1147;104473;-72
2021/04/02 10:08:29;;;;;;;6.95;4.67;;;;;;;8.29;55.69;100249.63;147631;1147;104518;-70
2021/04/02 10:11:33;;;;;;;6.00;4.87;;;;;;;8.37;56.42;100233.81;147691;1147;104565;-70
2021/04/02 10:14:37;;;;;;;4.00;3.60;;;;;;;8.31;55.86;100229.05;147448;1147;104503;-70
2021/04/02 10:17:40;;;;;;;4.20;3.80;;;;;;;8.28;53.97;100239.98;147504;1147;104477;-70
2021/04/02 10:20:43;;;;;;;4.67;3.70;;;;;;;8.26;55.42;100230.31;147701;1147;104651;-70
2021/04/02 10:23:48;;;;;;;4.97;3.85;;;;;;;8.44;56.29;100219.85;147725;1147;104656;-74
2021/04/02 10:26:51;;;;;;;4.53;3.87;;;;;;;8.42;56.22;100213.00;147651;1148;104495;-70
2021/04/02 10:29:54;;;;;;;3.83;3.20;;;;;;;8.36;52.18;100224.17;147459;1147;104476;-72
2021/04/02 10:32:57;;;;;;;3.50;2.43;;;;;;;8.33;53.45;100213.80;147687;1147;104563;-70
2021/04/02 10:36:01;;;;;;;3.37;2.57;;;;;;;8.39;52.91;100214.10;147656;1147;104627;-71
2021/04/02 10:39:04;;;;;;;3.55;2.70;;;;;;;8.42;54.82;100210.34;147448;1147;104572;-73
2021/04/02 10:42:08;;;;;;;4.90;2.87;;;;;;;8.35;52.97;100210.05;147220;1148;104550;-72
2021/04/02 10:45:13;;;;;;;3.90;3.20;;;;;;;8.38;55.46;100196.45;147230;1147;104476;-73
2021/04/02 10:48:17;;;;;;;4.20;2.90;;;;;;;8.46;52.44;100198.45;147686;1147;104550;-76
2021/04/02 10:51:21;;;;;;;3.12;2.60;;;;;;;8.26;51.01;100200.25;147617;1147;104646;-71
2021/04/02 10:54:24;;;;;;;3.10;2.30;;;;;;;8.13;54.19;100192.53;147775;1147;105109;-77
2021/04/02 10:57:27;;;;;;;4.72;3.20;;;;;;;8.28;54.62;100189.48;147710;1147;104467;-72
2021/04/02 11:00:30;;;;;;;14.25;9.10;;;;;;;8.55;54.51;100188.80;147798;1148;104470;-73
2021/04/02 11:03:33;;;;;;;6.72;4.78;;;;;;;8.75;53.28;100192.25;147821;1147;104889;-73
2021/04/02 11:06:36;;;;;;;4.40;3.50;;;;;;;8.79;52.45;100189.16;147615;1147;104430;-71
2021/04/02 11:09:40;;;;;;;4.42;3.20;;;;;;;8.78;52.96;100182.17;147532;1147;104436;-72
2021/04/02 11:12:43;;;;;;;6.00;4.00;;;;;;;8.83;52.91;100177.27;147789;1147;104495;-71
2021/04/02 11:15:46;;;;;;;7.33;4.58;;;;;;;8.84;53.21;100180.76;147687;1146;104552;-73
2021/04/02 11:18:49;;;;;;;141.12;71.62;;;;;;;8.94;54.01;100175.41;147622;1148;104549;-71
2021/04/02 11:21:52;;;;;;;100.70;51.92;;;;;;;9.14;53.39;100170.84;147775;1147;104666;-71
2021/04/02 11:24:56;;;;;;;103.22;59.60;;;;;;;9.29;53.23;100169.39;147772;1148;104461;-74
2021/04/02 11:27:59;;;;;;;23.55;14.13;;;;;;;9.48;51.16;100170.30;147695;1147;104384;-70
2021/04/02 11:31:02;;;;;;;12.95;7.33;;;;;;;9.43;52.51;100171.58;147636;1147;104483;-73
2021/04/02 11:34:05;;;;;;;11.27;8.57;;;;;;;9.38;50.31;100168.52;147732;1146;104489;-72
2021/04/02 11:37:09;;;;;;;8.25;5.75;;;;;;;9.38;52.15;100160.52;147996;1146;104916;-72
2021/04/02 11:40:15;;;;;;;7.15;5.35;;;;;;;9.43;52.35;100160.09;147660;1148;104541;-71
2021/04/02 11:43:18;;;;;;;6.53;4.30;;;;;;;9.51;51.58;100162.02;147844;1148;104447;-73
2021/04/02 11:46:21;;;;;;;11.10;7.87;;;;;;;9.49;52.48;100146.18;147764;1148;104543;-72
2021/04/02 11:49:24;;;;;;;31.65;21.20;;;;;;;9.60;51.80;100153.11;147538;1147;104476;-72
2021/04/02 11:52:28;;;;;;;11.12;7.22;;;;;;;9.66;52.27;100143.69;147524;1147;104889;-71
2021/04/02 11:55:31;;;;;;;9.25;6.15;;;;;;;9.71;52.67;100141.42;147661;1147;104592;-73
2021/04/02 11:58:35;;;;;;;5.40;4.40;;;;;;;9.73;51.42;100139.44;147395;1147;104547;-73
2021/04/02 12:01:38;;;;;;;5.25;3.90;;;;;;;9.60;49.77;100143.31;147769;1147;104489;-75
2021/04/02 12:04:42;;;;;;;3.52;3.12;;;;;;;9.48;50.37;100133.84;147798;1147;104440;-72
2021/04/02 12:07:45;;;;;;;7.92;5.53;;;;;;;9.54;51.34;100130.57;147806;1146;104562;-72
2021/04/02 12:10:48;;;;;;;44.98;29.90;;;;;;;9.62;51.06;100127.16;147803;1147;104484;-72
2021/04/02 12:13:51;;;;;;;8.80;7.05;;;;;;;9.65;49.33;100132.20;147759;1147;104540;-75
2021/04/02 12:16:54;;;;;;;6.03;4.12;;;;;;;9.65;50.31;100129.53;147781;1147;104562;-71
2021/04/02 12:19:57;;;;;;;3.75;3.35;;;;;;;9.59;49.26;100122.15;147783;1146;104465;-71
2021/04/02 12:23:01;;;;;;;5.08;3.92;;;;;;;9.56;47.44;100135.75;147787;1148;104628;-72
2021/04/02 12:26:04;;;;;;;4.17;3.35;;;;;;;9.66;49.51;100109.91;147787;1147;104908;-72
2021/04/02 12:29:08;;;;;;;5.12;3.40;;;;;;;9.73;50.13;100105.63;147478;1147;104441;-72
2021/04/02 12:32:11;;;;;;;5.10;4.42;;;;;;;9.78;48.79;100107.86;147730;1148;104540;-72
2021/04/02 12:35:15;;;;;;;5.08;3.70;;;;;;;9.69;47.77;100106.92;147780;1147;104540;-72
2021/04/02 12:38:18;;;;;;;4.75;4.10;;;;;;;9.62;49.27;100101.37;147790;1147;104604;-73
2021/04/02 12:41:21;;;;;;;5.20;4.30;;;;;;;9.72;49.11;100093.31;147849;1147;104450;-72
2021/04/02 12:44:24;;;;;;;6.40;4.42;;;;;;;9.67;48.58;100102.75;147728;1148;104480;-70
2021/04/02 12:47:28;;;;;;;6.62;5.00;;;;;;;9.70;49.74;100092.63;147560;1148;104622;-72
2021/04/02 12:50:32;;;;;;;5.67;4.40;;;;;;;9.75;49.92;100084.17;147854;1146;104546;-71
2021/04/02 12:53:35;;;;;;;6.10;4.67;;;;;;;9.74;46.77;100086.00;147752;1147;104611;-72
2021/04/02 12:56:38;;;;;;;6.22;5.12;;;;;;;9.63;46.55;100079.06;147796;1148;104531;-73
2021/04/02 12:59:41;;;;;;;7.08;5.37;;;;;;;9.56;47.08;100069.99;147796;1147;104466;-75
2021/04/02 13:02:44;;;;;;;6.73;5.43;;;;;;;9.63;48.86;100068.41;147832;1147;104535;-72
2021/04/02 13:05:48;;;;;;;7.90;5.83;;;;;;;9.78;48.87;100068.72;147922;1147;104546;-74
2021/04/02 13:08:51;;;;;;;6.92;5.10;;;;;;;9.77;46.55;100061.70;147944;1147;104670;-72
2021/04/02 13:11:54;;;;;;;6.67;5.27;;;;;;;9.79;47.88;100064.22;147732;1147;104538;-71
2021/04/02 13:14:57;;;;;;;8.13;5.65;;;;;;;9.78;46.96;100063.39;147836;1146;104439;-72
2021/04/02 13:18:01;;;;;;;6.03;5.20;;;;;;;9.77;44.50;100059.04;147786;1147;104545;-72
2021/04/02 13:21:05;;;;;;;5.90;5.00;;;;;;;9.78;47.04;100057.23;147400;1147;104553;-71
2021/04/02 13:24:10;;;;;;;7.73;5.37;;;;;;;9.81;46.50;100056.91;147700;1147;104519;-70
2021/04/02 13:27:13;;;;;;;6.33;5.27;;;;;;;9.85;45.78;100052.11;147652;1147;104532;-73
2021/04/02 13:30:18;;;;;;;6.78;5.20;;;;;;;9.95;47.65;100056.38;147787;1148;104582;-71
2021/04/02 13:33:21;;;;;;;7.20;5.40;;;;;;;9.90;45.72;100057.83;147291;1147;104473;-70
2021/04/02 13:36:26;;;;;;;6.78;5.20;;;;;;;9.88;47.32;100043.83;147783;1147;104470;-71
2021/04/02 13:39:29;;;;;;;6.03;4.75;;;;;;;9.95;45.10;100058.19;147570;1147;104644;-73
2021/04/02 13:42:33;;;;;;;6.30;4.67;;;;;;;9.95;46.54;100042.19;147881;1147;106013;-71
2021/04/02 13:45:36;;;;;;;5.53;4.90;;;;;;;9.94;47.00;100035.20;147616;1147;104547;-72
2021/04/02 13:48:40;;;;;;;7.00;5.22;;;;;;;10.00;45.04;100037.25;147231;1147;104550;-72
2021/04/02 13:51:44;;;;;;;7.90;5.78;;;;;;;9.91;45.95;100035.50;147705;1147;104458;-73
2021/04/02 13:54:47;;;;;;;6.70;5.78;;;;;;;9.89;47.36;100038.34;147819;1147;104727;-70
2021/04/02 13:57:50;;;;;;;6.87;5.53;;;;;;;9.90;46.87;100017.86;147891;1147;104716;-74
2021/04/02 14:00:53;;;;;;;8.28;5.25;;;;;;;9.94;43.63;100021.88;147787;1147;104526;-72
2021/04/02 14:03:57;;;;;;;6.55;5.67;;;;;;;9.98;46.07;100015.24;147857;1147;104847;-72
2021/04/02 14:07:00;;;;;;;6.28;5.47;;;;;;;10.00;45.23;100005.27;147899;1147;104543;-76